Time;durP1;ratioP1;P1;durP2;ratioP2;P2;SDS_P1;SDS_P2;PMS_P1;PMS_P2;Temp;Humidity;BMP_temperature;BMP_pressure;BME280_temperature;BME280_humidity;BME280_pressure;Samples;Min_cycle;Max_cycle;Signal;HPM_P1;HPM_P2
2023/08/16 00:01:33;;;;;;;2.97;2.30;;;;;;;;;;5013135;28;20173;-76
2023/08/16 00:03:59;;;;;;;6.13;2.20;;;;;;;;;;5009520;28;20196;-76
2023/08/16 00:06:25;;;;;;;4.47;2.00;;;;;;;;;;5032597;28;20213;-76
2023/08/16 00:08:57;;;;;;;2.50;1.90;;;;;;;;;;5015864;28;20187;-75
2023/08/16 00:11:23;;;;;;;5.80;2.30;;;;;;;;;;5030869;28;20196;-75
2023/08/16 00:13:49;;;;;;;6.93;2.40;;;;;;;;;;5032518;28;20180;-75
2023/08/16 00:16:15;;;;;;;3.80;2.60;;;;;;;;;;5015876;28;20188;-75
2023/08/16 00:18:41;;;;;;;7.13;2.50;;;;;;;;;;5015703;28;20188;-75
2023/08/16 00:21:07;;;;;;;5.93;2.53;;;;;;;;;;5016095;28;20204;-75
2023/08/16 00:23:33;;;;;;;9.70;2.37;;;;;;;;;;5032573;28;20258;-75
2023/08/16 00:25:59;;;;;;;5.90;3.00;;;;;;;;;;5016267;28;20286;-81
2023/08/16 00:28:25;;;;;;;5.77;3.33;;;;;;;;;;5016335;28;20188;-80
2023/08/16 00:30:54;;;;;;;5.20;2.50;;;;;;;;;;5016847;28;20214;-80
2023/08/16 00:33:21;;;;;;;5.03;2.40;;;;;;;;;;5008823;28;20173;-80
2023/08/16 00:35:47;;;;;;;2.97;2.27;;;;;;;;;;5016501;28;20180;-81
2023/08/16 00:38:13;;;;;;;5.37;2.90;;;;;;;;;;5000967;28;20242;-81
2023/08/16 00:40:39;;;;;;;6.47;2.90;;;;;;;;;;5016794;28;20218;-81
2023/08/16 00:43:05;;;;;;;4.97;2.70;;;;;;;;;;4959208;28;1109444;-80
2023/08/16 00:45:31;;;;;;;6.50;2.80;;;;;;;;;;5028667;28;20217;-81
2023/08/16 00:47:57;;;;;;;5.93;2.50;;;;;;;;;;5016668;28;20181;-76
2023/08/16 00:50:24;;;;;;;4.83;2.30;;;;;;;;;;5017030;28;20199;-76
2023/08/16 00:52:50;;;;;;;4.17;2.20;;;;;;;;;;5024394;28;20209;-76
2023/08/16 00:55:16;;;;;;;5.10;2.63;;;;;;;;;;5017978;28;20280;-76
2023/08/16 00:57:42;;;;;;;5.73;2.40;;;;;;;;;;5001500;28;20196;-76
2023/08/16 01:00:10;;;;;;;4.60;3.20;;;;;;;;;;5011988;28;20189;-76
2023/08/16 01:02:36;;;;;;;4.40;3.00;;;;;;;;;;5012060;28;20212;-76
2023/08/16 01:05:02;;;;;;;4.90;3.10;;;;;;;;;;5012176;28;20217;-76
2023/08/16 01:07:28;;;;;;;4.93;2.80;;;;;;;;;;4995909;28;20212;-76
2023/08/16 01:09:54;;;;;;;5.37;3.30;;;;;;;;;;5012569;28;20205;-76
2023/08/16 01:12:29;;;;;;;7.80;3.40;;;;;;;;;;4994437;28;20221;-76
2023/08/16 01:15:03;;;;;;;4.07;3.03;;;;;;;;;;5012708;28;20181;-81
2023/08/16 01:17:30;;;;;;;5.53;2.97;;;;;;;;;;5014061;28;20189;-81
2023/08/16 01:19:57;;;;;;;6.03;3.07;;;;;;;;;;5013217;28;20181;-80
2023/08/16 01:22:31;;;;;;;5.63;3.03;;;;;;;;;;5013211;28;20272;-81
2023/08/16 01:25:00;;;;;;;5.03;2.80;;;;;;;;;;5013797;28;20185;-81
2023/08/16 01:27:27;;;;;;;5.73;3.00;;;;;;;;;;5014084;28;20219;-81
2023/08/16 01:29:53;;;;;;;6.13;2.90;;;;;;;;;;5013981;28;20181;-81
2023/08/16 01:32:22;;;;;;;6.43;3.53;;;;;;;;;;4996481;28;20240;-81
2023/08/16 01:34:48;;;;;;;4.83;3.40;;;;;;;;;;5030056;28;20211;-80
2023/08/16 01:37:14;;;;;;;6.33;3.37;;;;;;;;;;5012705;28;20186;-76
2023/08/16 01:39:40;;;;;;;6.37;3.70;;;;;;;;;;4994996;28;20215;-76
2023/08/16 01:42:09;;;;;;;6.03;3.43;;;;;;;;;;5012859;28;20193;-76
2023/08/16 01:44:35;;;;;;;7.67;3.73;;;;;;;;;;5032463;28;20242;-76
2023/08/16 01:47:02;;;;;;;5.13;3.40;;;;;;;;;;5011896;28;20216;-76
2023/08/16 01:49:28;;;;;;;5.40;3.33;;;;;;;;;;5027948;28;20187;-76
2023/08/16 01:51:54;;;;;;;7.10;3.23;;;;;;;;;;5014732;28;20184;-77
2023/08/16 01:54:20;;;;;;;4.50;3.30;;;;;;;;;;5011137;28;20192;-76
2023/08/16 01:56:46;;;;;;;5.07;3.00;;;;;;;;;;4999118;28;20259;-76
2023/08/16 01:59:12;;;;;;;4.90;3.10;;;;;;;;;;5030800;28;20192;-76
2023/08/16 02:01:38;;;;;;;4.00;3.07;;;;;;;;;;4999180;28;20188;-76
2023/08/16 02:04:04;;;;;;;5.40;3.00;;;;;;;;;;4998127;28;20196;-76
2023/08/16 02:06:30;;;;;;;5.67;3.10;;;;;;;;;;5028989;28;20218;-76
2023/08/16 02:08:56;;;;;;;4.83;3.20;;;;;;;;;;5014987;28;20227;-76
2023/08/16 02:11:22;;;;;;;8.97;3.50;;;;;;;;;;5014878;28;20184;-75
2023/08/16 02:13:48;;;;;;;9.00;3.53;;;;;;;;;;5015009;28;20180;-75
2023/08/16 02:16:14;;;;;;;6.57;3.50;;;;;;;;;;5015673;28;20188;-75
2023/08/16 02:18:40;;;;;;;8.40;3.37;;;;;;;;;;5033960;28;20180;-75
2023/08/16 02:21:06;;;;;;;5.33;3.23;;;;;;;;;;4994478;28;20181;-76
2023/08/16 02:23:32;;;;;;;5.93;3.30;;;;;;;;;;5031587;28;20280;-76
2023/08/16 02:25:58;;;;;;;6.50;3.40;;;;;;;;;;5002529;28;20291;-76
2023/08/16 02:28:24;;;;;;;7.97;3.50;;;;;;;;;;5001824;28;20283;-76
2023/08/16 02:30:50;;;;;;;5.77;3.40;;;;;;;;;;5018747;28;20191;-76
2023/08/16 02:33:16;;;;;;;8.87;3.60;;;;;;;;;;5016310;28;20188;-76
2023/08/16 02:35:42;;;;;;;7.47;3.60;;;;;;;;;;5018422;28;20192;-76
2023/08/16 02:38:08;;;;;;;4.57;3.30;;;;;;;;;;5018342;28;20292;-80
2023/08/16 02:40:36;;;;;;;6.87;3.53;;;;;;;;;;5020020;28;20212;-81
2023/08/16 02:43:02;;;;;;;7.27;3.53;;;;;;;;;;5019919;28;20236;-80
2023/08/16 02:45:28;;;;;;;8.57;3.97;;;;;;;;;;5002825;28;20307;-81
2023/08/16 02:47:55;;;;;;;10.23;3.77;;;;;;;;;;5003322;28;20262;-81
2023/08/16 02:50:21;;;;;;;6.03;4.10;;;;;;;;;;4995397;28;20188;-81
2023/08/16 02:52:47;;;;;;;10.03;4.17;;;;;;;;;;5035968;28;20216;-81
2023/08/16 02:55:13;;;;;;;9.63;4.00;;;;;;;;;;5019742;28;20211;-81
2023/08/16 02:57:39;;;;;;;7.90;3.87;;;;;;;;;;5014180;28;20288;-81
2023/08/16 03:00:09;;;;;;;7.10;3.90;;;;;;;;;;5018374;28;20192;-81
2023/08/16 03:02:35;;;;;;;6.30;3.60;;;;;;;;;;5036966;28;20176;-81
2023/08/16 03:05:01;;;;;;;5.50;3.50;;;;;;;;;;5019743;28;20192;-81
2023/08/16 03:07:27;;;;;;;9.00;4.10;;;;;;;;;;5019217;28;20239;-81
2023/08/16 03:09:53;;;;;;;5.57;3.90;;;;;;;;;;5018995;28;20176;-81
2023/08/16 03:12:19;;;;;;;10.27;3.77;;;;;;;;;;5018962;28;20245;-76
2023/08/16 03:14:45;;;;;;;7.73;3.90;;;;;;;;;;5033783;28;20181;-76
2023/08/16 03:17:11;;;;;;;8.17;4.10;;;;;;;;;;5017785;28;20197;-76
2023/08/16 03:19:37;;;;;;;7.97;3.93;;;;;;;;;;5034955;28;20192;-76
2023/08/16 03:22:03;;;;;;;7.93;4.00;;;;;;;;;;5018249;28;20184;-76
2023/08/16 03:24:29;;;;;;;9.97;4.10;;;;;;;;;;5035077;28;20184;-76
2023/08/16 03:26:55;;;;;;;6.93;4.20;;;;;;;;;;5018245;28;20212;-76
2023/08/16 03:29:21;;;;;;;6.03;3.80;;;;;;;;;;5034643;28;20188;-76
2023/08/16 03:31:47;;;;;;;8.53;4.27;;;;;;;;;;5031947;28;20189;-76
2023/08/16 03:34:13;;;;;;;7.77;4.20;;;;;;;;;;5034138;28;20247;-76
2023/08/16 03:36:40;;;;;;;6.77;4.20;;;;;;;;;;5033168;28;20254;-76
2023/08/16 03:39:06;;;;;;;9.90;4.97;;;;;;;;;;5034092;28;20189;-76
2023/08/16 03:41:33;;;;;;;7.77;4.67;;;;;;;;;;5018037;28;20280;-76
2023/08/16 03:44:00;;;;;;;6.73;4.73;;;;;;;;;;5022092;28;20236;-76
2023/08/16 03:46:26;;;;;;;10.23;4.57;;;;;;;;;;5010661;28;20223;-77
2023/08/16 03:48:52;;;;;;;8.27;4.50;;;;;;;;;;5015228;28;20273;-76
2023/08/16 03:51:18;;;;;;;5.97;4.20;;;;;;;;;;5003788;28;20197;-77
2023/08/16 03:53:44;;;;;;;5.33;4.20;;;;;;;;;;5005871;28;20186;-76
2023/08/16 03:56:10;;;;;;;8.20;4.50;;;;;;;;;;4995370;28;20185;-76
2023/08/16 03:58:36;;;;;;;10.50;4.80;;;;;;;;;;5024717;28;20203;-76
2023/08/16 04:01:02;;;;;;;10.93;5.37;;;;;;;;;;4983648;28;20200;-74
2023/08/16 04:03:28;;;;;;;11.60;6.23;;;;;;;;;;4982784;28;20181;-75
2023/08/16 04:05:54;;;;;;;7.47;5.40;;;;;;;;;;4992190;28;20212;-74
2023/08/16 04:08:20;;;;;;;10.63;5.93;;;;;;;;;;5021340;28;20185;-74
2023/08/16 04:10:46;;;;;;;11.27;5.93;;;;;;;;;;4979338;28;20194;-75
2023/08/16 04:13:12;;;;;;;10.53;5.53;;;;;;;;;;5014551;28;20196;-75
2023/08/16 04:15:38;;;;;;;12.17;6.67;;;;;;;;;;4998081;28;20284;-74
2023/08/16 04:18:04;;;;;;;12.00;6.17;;;;;;;;;;5014413;28;20185;-81
2023/08/16 04:20:30;;;;;;;8.93;6.20;;;;;;;;;;4996472;28;20203;-82
2023/08/16 04:22:56;;;;;;;8.00;6.43;;;;;;;;;;5015994;28;20220;-82
2023/08/16 04:25:22;;;;;;;7.93;5.93;;;;;;;;;;5015713;28;20245;-80
2023/08/16 04:27:48;;;;;;;12.10;5.87;;;;;;;;;;5015916;28;20201;-81
2023/08/16 04:30:14;;;;;;;10.00;5.67;;;;;;;;;;5002426;28;20292;-81
2023/08/16 04:32:40;;;;;;;9.70;5.73;;;;;;;;;;4999296;28;20208;-81
2023/08/16 04:35:07;;;;;;;7.17;5.40;;;;;;;;;;5000040;28;20181;-82
2023/08/16 04:37:33;;;;;;;8.90;5.10;;;;;;;;;;4999606;28;20177;-81
2023/08/16 04:40:02;;;;;;;8.47;4.83;;;;;;;;;;5016248;28;20184;-82
2023/08/16 04:42:30;;;;;;;11.70;5.23;;;;;;;;;;5018734;28;20224;-76
2023/08/16 04:44:56;;;;;;;8.40;4.67;;;;;;;;;;5014337;28;20188;-76
2023/08/16 04:47:22;;;;;;;6.67;4.83;;;;;;;;;;5014629;28;20186;-76
2023/08/16 04:49:48;;;;;;;9.80;4.50;;;;;;;;;;4997830;28;20185;-76
2023/08/16 04:52:14;;;;;;;6.63;4.63;;;;;;;;;;5016396;28;20205;-76
2023/08/16 04:54:40;;;;;;;6.50;4.70;;;;;;;;;;5013885;28;20178;-76
2023/08/16 04:57:06;;;;;;;8.23;4.93;;;;;;;;;;4998939;28;20193;-76
2023/08/16 04:59:32;;;;;;;9.83;5.20;;;;;;;;;;5034742;28;20203;-76
2023/08/16 05:01:58;;;;;;;6.83;4.73;;;;;;;;;;5033252;28;20188;-76
2023/08/16 05:04:24;;;;;;;11.17;5.20;;;;;;;;;;5014080;28;20186;-76
2023/08/16 05:06:50;;;;;;;14.77;5.30;;;;;;;;;;4997436;28;20331;-76
2023/08/16 05:09:16;;;;;;;8.80;5.07;;;;;;;;;;4989231;28;20223;-75
2023/08/16 05:11:42;;;;;;;8.87;5.00;;;;;;;;;;5008548;28;20173;-75
2023/08/16 05:14:08;;;;;;;9.97;5.70;;;;;;;;;;5000316;28;20260;-75
2023/08/16 05:16:34;;;;;;;10.27;5.60;;;;;;;;;;5035060;28;20320;-75
2023/08/16 05:19:00;;;;;;;9.67;5.43;;;;;;;;;;4997635;28;20251;-75
2023/08/16 05:21:27;;;;;;;9.73;5.80;;;;;;;;;;4997419;28;20193;-75
2023/08/16 05:23:53;;;;;;;10.00;5.80;;;;;;;;;;4997240;28;20248;-74
2023/08/16 05:26:19;;;;;;;10.60;6.07;;;;;;;;;;5023518;28;20251;-83
2023/08/16 05:28:45;;;;;;;12.57;6.80;;;;;;;;;;5005929;28;20223;-83
2023/08/16 05:31:11;;;;;;;9.87;6.00;;;;;;;;;;5031836;28;20281;-83
2023/08/16 05:33:38;;;;;;;9.83;6.43;;;;;;;;;;5013476;28;20186;-83
2023/08/16 05:36:04;;;;;;;9.30;6.40;;;;;;;;;;5015056;28;20192;-76
2023/08/16 05:38:30;;;;;;;10.53;6.57;;;;;;;;;;5034080;28;20256;-77
2023/08/16 05:40:56;;;;;;;11.67;6.47;;;;;;;;;;4997166;28;20275;-83
2023/08/16 05:43:22;;;;;;;11.73;6.90;;;;;;;;;;4985556;28;20228;-83
2023/08/16 05:45:48;;;;;;;12.80;6.67;;;;;;;;;;5013614;28;20300;-82
2023/08/16 05:48:14;;;;;;;12.43;6.50;;;;;;;;;;5014717;28;20174;-82
2023/08/16 05:50:41;;;;;;;14.17;6.80;;;;;;;;;;5008854;28;20201;-75
2023/08/16 05:53:08;;;;;;;9.77;7.03;;;;;;;;;;5014079;28;20184;-75
2023/08/16 05:55:34;;;;;;;11.33;6.90;;;;;;;;;;5012599;28;20177;-74
2023/08/16 05:58:00;;;;;;;9.90;6.57;;;;;;;;;;5006257;28;20275;-76
2023/08/16 06:00:26;;;;;;;7.63;6.10;;;;;;;;;;5019188;28;20238;-76
2023/08/16 06:02:53;;;;;;;8.60;6.10;;;;;;;;;;5019158;28;20181;-76
2023/08/16 06:05:19;;;;;;;8.93;6.00;;;;;;;;;;5019125;28;20211;-76
2023/08/16 06:07:45;;;;;;;13.23;5.90;;;;;;;;;;5020251;28;20176;-76
2023/08/16 06:10:12;;;;;;;8.67;5.43;;;;;;;;;;5033318;28;20187;-76
2023/08/16 06:12:38;;;;;;;8.30;5.40;;;;;;;;;;5036710;28;20199;-77
2023/08/16 06:15:11;;;;;;;6.77;4.90;;;;;;;;;;5036768;28;20227;-77
2023/08/16 06:17:37;;;;;;;9.63;4.63;;;;;;;;;;5017345;28;20189;-77
2023/08/16 06:20:03;;;;;;;11.03;4.77;;;;;;;;;;5036521;28;20177;-77
2023/08/16 06:22:33;;;;;;;8.47;4.33;;;;;;;;;;5036309;28;20253;-77
2023/08/16 06:24:59;;;;;;;9.07;4.60;;;;;;;;;;5036712;28;20264;-77
2023/08/16 06:27:25;;;;;;;7.33;4.30;;;;;;;;;;5019071;28;20191;-77
2023/08/16 06:29:51;;;;;;;8.83;4.63;;;;;;;;;;5015870;28;20268;-77
2023/08/16 06:32:17;;;;;;;7.33;4.33;;;;;;;;;;5021313;28;20309;-77
2023/08/16 06:34:43;;;;;;;8.97;4.77;;;;;;;;;;5019115;28;20181;-76
2023/08/16 06:37:09;;;;;;;10.53;4.40;;;;;;;;;;5019732;28;20184;-76
2023/08/16 06:39:35;;;;;;;9.63;4.63;;;;;;;;;;5020108;28;20192;-83
2023/08/16 06:42:03;;;;;;;8.37;4.57;;;;;;;;;;5013325;28;20188;-82
2023/08/16 06:44:29;;;;;;;8.80;4.60;;;;;;;;;;5036535;28;20243;-83
2023/08/16 06:46:55;;;;;;;7.40;3.90;;;;;;;;;;5003157;28;20217;-83
2023/08/16 06:49:21;;;;;;;9.40;4.30;;;;;;;;;;5032947;28;20200;-75
2023/08/16 06:51:47;;;;;;;10.73;4.50;;;;;;;;;;5016314;28;20169;-75
2023/08/16 06:54:13;;;;;;;6.70;4.13;;;;;;;;;;5000103;28;20196;-76
2023/08/16 06:56:39;;;;;;;7.27;4.50;;;;;;;;;;4999631;28;20196;-75
2023/08/16 06:59:05;;;;;;;9.43;4.20;;;;;;;;;;4981798;28;20186;-75
2023/08/16 07:01:31;;;;;;;8.60;4.40;;;;;;;;;;5010527;28;20256;-75
2023/08/16 07:03:57;;;;;;;8.47;3.97;;;;;;;;;;5015217;28;20240;-75
2023/08/16 07:06:26;;;;;;;9.70;4.10;;;;;;;;;;4983175;28;20217;-77
2023/08/16 07:08:52;;;;;;;7.30;3.90;;;;;;;;;;4983864;28;20185;-77
2023/08/16 07:11:18;;;;;;;7.30;3.70;;;;;;;;;;4983454;28;20196;-77
2023/08/16 07:13:44;;;;;;;8.70;3.80;;;;;;;;;;4979232;28;20186;-77
2023/08/16 07:16:10;;;;;;;8.23;3.60;;;;;;;;;;4980452;28;20194;-77
2023/08/16 07:18:36;;;;;;;7.33;3.77;;;;;;;;;;5006582;28;20213;-77
2023/08/16 07:21:02;;;;;;;7.93;3.73;;;;;;;;;;4999443;28;20336;-81
2023/08/16 07:23:28;;;;;;;7.63;3.40;;;;;;;;;;4995766;28;20206;-82
2023/08/16 07:25:56;;;;;;;8.87;3.67;;;;;;;;;;5044558;28;20216;-81
2023/08/16 07:28:22;;;;;;;4.90;3.20;;;;;;;;;;5018717;28;20199;-82
2023/08/16 07:30:48;;;;;;;8.83;4.03;;;;;;;;;;5019010;28;20227;-81
2023/08/16 07:33:14;;;;;;;6.43;3.50;;;;;;;;;;5019473;28;20177;-82
2023/08/16 07:35:40;;;;;;;8.27;3.77;;;;;;;;;;5036212;28;20185;-82
2023/08/16 07:38:06;;;;;;;9.03;3.90;;;;;;;;;;5016791;28;20198;-82
2023/08/16 07:40:32;;;;;;;7.60;3.70;;;;;;;;;;5018885;28;20220;-82
2023/08/16 07:42:59;;;;;;;8.37;3.83;;;;;;;;;;5001625;28;20243;-82
2023/08/16 07:45:25;;;;;;;8.23;3.90;;;;;;;;;;4998671;28;20263;-82
2023/08/16 07:47:51;;;;;;;5.67;3.10;;;;;;;;;;4998395;28;20192;-81
2023/08/16 07:50:17;;;;;;;6.90;3.70;;;;;;;;;;5015850;28;20209;-80
2023/08/16 07:52:45;;;;;;;5.67;3.27;;;;;;;;;;4995331;28;20181;-81
2023/08/16 07:55:11;;;;;;;6.83;3.10;;;;;;;;;;5016111;28;20173;-74
2023/08/16 07:57:37;;;;;;;7.50;3.40;;;;;;;;;;5046111;22;20367;-75
2023/08/16 08:00:06;;;;;;;5.77;3.33;;;;;;;;;;5019342;28;20235;-74
2023/08/16 08:02:32;;;;;;;6.60;3.23;;;;;;;;;;5034675;28;20227;-74
2023/08/16 08:05:01;;;;;;;7.22;3.30;;;;;;;;;;5033751;28;21234;-76
2023/08/16 08:07:28;;;;;;;5.67;3.13;;;;;;;;;;5025935;28;20410;-76
2023/08/16 08:09:55;;;;;;;6.82;3.15;;;;;;;;;;5016295;28;20413;-79
2023/08/16 08:12:21;;;;;;;5.97;2.77;;;;;;;;;;5035012;28;20169;-75
2023/08/16 08:14:47;;;;;;;7.37;3.00;;;;;;;;;;5017563;28;20272;-75
2023/08/16 08:17:13;;;;;;;5.57;3.05;;;;;;;;;;5031891;28;20421;-75
2023/08/16 08:19:39;;;;;;;5.17;3.07;;;;;;;;;;5034000;28;20191;-75
2023/08/16 08:22:05;;;;;;;9.87;3.10;;;;;;;;;;5017570;28;20197;-75
2023/08/16 08:24:31;;;;;;;6.10;2.90;;;;;;;;;;5033905;28;20180;-75
2023/08/16 08:26:57;;;;;;;7.73;3.30;;;;;;;;;;5030748;28;20219;-75
2023/08/16 08:29:25;;;;;;;9.93;3.33;;;;;;;;;;5050094;28;20466;-74
2023/08/16 08:31:51;;;;;;;6.63;3.30;;;;;;;;;;5033924;28;20448;-74
2023/08/16 08:34:17;;;;;;;8.48;3.80;;;;;;;;;;5034675;28;20429;-75
2023/08/16 08:36:43;;;;;;;9.20;3.20;;;;;;;;;;5034692;28;20181;-75
2023/08/16 08:39:09;;;;;;;5.90;3.03;;;;;;;;;;5033536;28;20185;-75
2023/08/16 08:41:36;;;;;;;7.33;2.93;;;;;;;;;;5017371;28;20188;-74
2023/08/16 08:44:02;;;;;;;6.67;3.10;;;;;;;;;;5032661;28;20467;-75
2023/08/16 08:46:30;;;;;;;6.43;3.33;;;;;;;;;;5032549;28;20437;-75
2023/08/16 08:48:58;;;;;;;8.63;3.88;;;;;;;;;;5029142;28;20412;-75
2023/08/16 08:51:24;;;;;;;8.30;4.03;;;;;;;;;;5041841;28;20226;-75
2023/08/16 08:53:51;;;;;;;7.10;3.70;;;;;;;;;;5032856;28;20412;-74
2023/08/16 08:56:18;;;;;;;8.52;3.80;;;;;;;;;;5035063;28;20323;-74
2023/08/16 08:58:46;;;;;;;8.88;3.15;;;;;;;;;;5033417;28;20185;-75
2023/08/16 09:01:14;;;;;;;5.93;3.92;;;;;;;;;;5052526;28;20411;-77
2023/08/16 09:03:41;;;;;;;7.75;4.20;;;;;;;;;;5049447;28;20413;-77
2023/08/16 09:06:07;;;;;;;7.13;4.35;;;;;;;;;;5051036;28;20442;-77
2023/08/16 09:08:41;;;;;;;6.03;3.70;;;;;;;;;;5048864;28;20402;-77
2023/08/16 09:11:07;;;;;;;6.55;4.10;;;;;;;;;;5033527;28;20401;-77
2023/08/16 09:13:33;;;;;;;8.07;3.80;;;;;;;;;;5029781;28;20243;-77
2023/08/16 09:16:02;;;;;;;7.80;3.20;;;;;;;;;;5020346;28;20191;-77
2023/08/16 09:18:28;;;;;;;7.37;3.67;;;;;;;;;;5028917;28;20495;-76
2023/08/16 09:20:54;;;;;;;7.38;3.55;;;;;;;;;;5019017;28;20408;-76
2023/08/16 09:23:21;;;;;;;6.25;3.10;;;;;;;;;;5035449;28;20400;-76
2023/08/16 09:25:49;;;;;;;6.22;3.20;;;;;;;;;;5052913;28;20482;-76
2023/08/16 09:28:15;;;;;;;6.75;3.17;;;;;;;;;;5050934;28;20420;-76
2023/08/16 09:30:42;;;;;;;7.03;3.00;;;;;;;;;;5046813;28;20408;-76
2023/08/16 09:33:08;;;;;;;6.32;3.00;;;;;;;;;;5035282;28;20400;-76
2023/08/16 09:35:34;;;;;;;5.47;3.10;;;;;;;;;;5053183;28;20408;-75
2023/08/16 09:38:01;;;;;;;6.05;3.10;;;;;;;;;;5049114;28;20405;-76
2023/08/16 09:40:27;;;;;;;7.22;2.97;;;;;;;;;;5045260;28;20180;-75
2023/08/16 09:42:59;;;;;;;4.95;2.50;;;;;;;;;;5036065;28;20203;-76
2023/08/16 09:45:31;;;;;;;5.82;2.95;;;;;;;;;;5053761;28;20191;-75
2023/08/16 09:47:59;;;;;;;5.43;2.58;;;;;;;;;;5049153;28;20198;-75
2023/08/16 09:50:25;;;;;;;6.43;3.22;;;;;;;;;;5049130;28;20177;-76
2023/08/16 09:52:52;;;;;;;5.47;3.10;;;;;;;;;;5032700;28;20172;-77
2023/08/16 09:55:29;;;;;;;4.82;2.80;;;;;;;;;;5035392;28;20183;-77
2023/08/16 09:57:57;;;;;;;5.22;2.58;;;;;;;;;;5049212;28;20234;-77
2023/08/16 10:00:23;;;;;;;9.05;3.00;;;;;;;;;;5045444;28;20243;-77
2023/08/16 10:02:50;;;;;;;8.45;2.88;;;;;;;;;;5035877;28;20171;-77
2023/08/16 10:05:16;;;;;;;5.82;2.35;;;;;;;;;;5051641;28;20172;-77
2023/08/16 10:07:42;;;;;;;7.68;2.65;;;;;;;;;;5036081;28;20214;-83
2023/08/16 10:10:13;;;;;;;6.00;2.30;;;;;;;;;;5050763;28;20330;-83
2023/08/16 10:12:39;;;;;;;4.43;2.65;;;;;;;;;;5053185;28;20404;-82
2023/08/16 10:15:05;;;;;;;4.50;2.40;;;;;;;;;;5051577;28;20416;-83
2023/08/16 10:17:33;;;;;;;5.97;2.60;;;;;;;;;;5044471;28;20400;-82
2023/08/16 10:20:04;;;;;;;8.65;2.50;;;;;;;;;;5032596;28;20283;-83
2023/08/16 10:22:35;;;;;;;4.82;2.60;;;;;;;;;;5035588;28;20176;-83
2023/08/16 10:25:11;;;;;;;9.50;2.72;;;;;;;;;;5035404;28;20172;-77
2023/08/16 10:27:37;;;;;;;5.65;2.60;;;;;;;;;;5035561;28;20182;-77
2023/08/16 10:30:05;;;;;;;4.65;2.10;;;;;;;;;;5035372;28;20208;-77
2023/08/16 10:32:32;;;;;;;3.90;2.20;;;;;;;;;;5052170;28;20183;-77
2023/08/16 10:34:59;;;;;;;4.65;2.33;;;;;;;;;;5052105;28;20228;-77
2023/08/16 10:37:26;;;;;;;7.40;2.38;;;;;;;;;;5035481;28;20184;-77
2023/08/16 10:39:52;;;;;;;5.78;2.22;;;;;;;;;;5053552;28;20194;-77
2023/08/16 10:42:18;;;;;;;4.32;2.60;;;;;;;;;;5058931;28;20187;-75
2023/08/16 10:44:51;;;;;;;5.72;2.40;;;;;;;;;;5058324;28;20410;-75
2023/08/16 10:47:27;;;;;;;4.90;2.45;;;;;;;;;;5058267;28;20453;-75
2023/08/16 10:49:53;;;;;;;5.13;2.40;;;;;;;;;;5057896;28;20406;-75
2023/08/16 10:52:26;;;;;;;4.00;2.10;;;;;;;;;;5041539;28;20406;-75
2023/08/16 10:54:54;;;;;;;4.88;2.10;;;;;;;;;;5057962;28;20463;-75
2023/08/16 10:57:24;;;;;;;3.88;1.88;;;;;;;;;;5057858;28;20512;-75
2023/08/16 10:59:50;;;;;;;4.30;2.20;;;;;;;;;;5057837;28;20398;-82
2023/08/16 11:02:17;;;;;;;4.03;2.10;;;;;;;;;;5057923;28;20424;-83
2023/08/16 11:04:45;;;;;;;4.10;2.00;;;;;;;;;;5041463;28;20421;-82
2023/08/16 11:07:12;;;;;;;3.40;2.00;;;;;;;;;;5041401;28;20430;-82
2023/08/16 11:09:39;;;;;;;3.87;1.87;;;;;;;;;;5057715;28;20410;-83
2023/08/16 11:12:06;;;;;;;5.95;1.95;;;;;;;;;;5057614;28;20409;-82
2023/08/16 11:14:34;;;;;;;4.28;2.30;;;;;;;;;;5057586;28;20517;-77
2023/08/16 11:17:02;;;;;;;4.82;2.20;;;;;;;;;;5076048;28;20205;-77
2023/08/16 11:19:28;;;;;;;3.78;1.80;;;;;;;;;;5032936;28;20436;-77
2023/08/16 11:21:56;;;;;;;3.83;1.70;;;;;;;;;;5037730;28;20422;-77
2023/08/16 11:24:24;;;;;;;3.83;2.03;;;;;;;;;;5068605;28;20477;-77
2023/08/16 11:26:50;;;;;;;2.80;2.03;;;;;;;;;;5058049;28;20207;-77
2023/08/16 11:29:18;;;;;;;3.38;2.00;;;;;;;;;;5058494;28;20238;-77
2023/08/16 11:31:44;;;;;;;3.53;2.20;;;;;;;;;;5073260;28;20255;-83
2023/08/16 11:34:10;;;;;;;2.90;2.17;;;;;;;;;;5040502;28;20178;-80
2023/08/16 11:36:39;;;;;;;5.63;2.40;;;;;;;;;;5057702;28;20187;-81
2023/08/16 11:39:09;;;;;;;2.83;1.98;;;;;;;;;;5070448;28;20199;-80
2023/08/16 11:41:36;;;;;;;4.22;2.60;;;;;;;;;;5054754;28;20172;-81
2023/08/16 11:44:03;;;;;;;6.50;2.72;;;;;;;;;;5075386;28;20168;-81
2023/08/16 11:46:39;;;;;;;5.85;2.30;;;;;;;;;;5046095;28;20203;-82
2023/08/16 11:49:05;;;;;;;7.38;2.72;;;;;;;;;;5055642;28;20390;-77
2023/08/16 11:51:31;;;;;;;3.88;2.40;;;;;;;;;;5044810;28;20602;-77
2023/08/16 11:53:58;;;;;;;5.05;2.55;;;;;;;;;;5037148;28;20424;-77
2023/08/16 11:56:28;;;;;;;5.18;2.45;;;;;;;;;;5036759;28;20519;-76
2023/08/16 11:58:55;;;;;;;6.63;2.20;;;;;;;;;;5071126;28;20402;-76
2023/08/16 12:01:23;;;;;;;6.60;2.60;;;;;;;;;;5056646;28;20402;-76
2023/08/16 12:03:50;;;;;;;4.83;2.27;;;;;;;;;;5056261;28;20398;-77
2023/08/16 12:06:19;;;;;;;3.65;2.20;;;;;;;;;;5056664;28;20426;-81
2023/08/16 12:08:53;;;;;;;5.75;2.25;;;;;;;;;;5035736;28;20426;-81
2023/08/16 12:11:35;;;;;;;5.13;2.20;;;;;;;;;;5055982;28;20464;-80
2023/08/16 12:14:01;;;;;;;3.72;2.00;;;;;;;;;;5056438;28;20398;-81
2023/08/16 12:16:28;;;;;;;4.17;2.07;;;;;;;;;;5040219;28;20493;-81
2023/08/16 12:18:54;;;;;;;5.32;2.20;;;;;;;;;;5038345;28;20521;-82
2023/08/16 12:21:20;;;;;;;4.05;1.92;;;;;;;;;;5073801;28;20422;-77
2023/08/16 12:23:46;;;;;;;2.90;1.80;;;;;;;;;;5068643;28;20404;-78
2023/08/16 12:26:13;;;;;;;3.38;1.92;;;;;;;;;;5052879;28;20434;-77
2023/08/16 12:28:39;;;;;;;4.43;1.77;;;;;;;;;;5055759;28;20418;-78
2023/08/16 12:31:06;;;;;;;2.67;1.70;;;;;;;;;;5069340;28;20548;-77
2023/08/16 12:33:32;;;;;;;5.15;2.08;;;;;;;;;;5048968;28;20420;-78
2023/08/16 12:35:58;;;;;;;3.63;2.00;;;;;;;;;;5016121;28;20412;-78
2023/08/16 12:38:24;;;;;;;2.75;1.77;;;;;;;;;;5048952;28;20429;-75
2023/08/16 12:40:50;;;;;;;3.97;2.00;;;;;;;;;;5073422;28;20402;-75
2023/08/16 12:43:18;;;;;;;3.63;1.93;;;;;;;;;;5056626;28;20398;-76
2023/08/16 12:45:45;;;;;;;3.42;2.00;;;;;;;;;;5043610;28;20527;-76
2023/08/16 12:48:11;;;;;;;5.20;1.97;;;;;;;;;;5054061;28;20429;-75
2023/08/16 12:50:37;;;;;;;3.65;1.90;;;;;;;;;;5072816;28;20446;-75
2023/08/16 12:53:03;;;;;;;4.50;2.00;;;;;;;;;;5072910;28;20445;-76
2023/08/16 12:55:31;;;;;;;4.15;2.50;;;;;;;;;;5055656;28;20422;-78
2023/08/16 12:57:58;;;;;;;4.38;2.03;;;;;;;;;;5051811;28;20470;-78
2023/08/16 13:00:25;;;;;;;4.72;2.10;;;;;;;;;;5053151;28;20423;-77
2023/08/16 13:02:52;;;;;;;4.15;2.03;;;;;;;;;;5053003;28;20412;-77
2023/08/16 13:05:18;;;;;;;3.70;1.83;;;;;;;;;;5052802;28;20466;-77
2023/08/16 13:07:44;;;;;;;5.25;2.20;;;;;;;;;;5035511;28;20477;-77
2023/08/16 13:10:10;;;;;;;4.13;2.35;;;;;;;;;;5053135;28;20407;-77
2023/08/16 13:12:36;;;;;;;4.20;2.33;;;;;;;;;;5042487;28;20396;-82
2023/08/16 13:15:03;;;;;;;4.35;2.40;;;;;;;;;;5044285;28;20444;-82
2023/08/16 13:17:29;;;;;;;5.10;2.60;;;;;;;;;;5058387;28;20419;-82
2023/08/16 13:19:55;;;;;;;4.38;2.55;;;;;;;;;;5050573;28;20435;-82
2023/08/16 13:22:21;;;;;;;3.45;2.10;;;;;;;;;;5035503;28;20452;-82
2023/08/16 13:24:47;;;;;;;3.78;1.95;;;;;;;;;;5049929;28;20416;-82
2023/08/16 13:27:13;;;;;;;5.75;1.98;;;;;;;;;;5050987;28;20513;-82
2023/08/16 13:29:39;;;;;;;4.80;2.35;;;;;;;;;;5036655;28;20175;-78
2023/08/16 13:32:06;;;;;;;4.80;2.10;;;;;;;;;;5053292;28;20406;-78
2023/08/16 13:34:32;;;;;;;3.60;2.10;;;;;;;;;;5052797;28;20481;-77
2023/08/16 13:36:58;;;;;;;4.17;2.03;;;;;;;;;;5051278;28;20432;-77
2023/08/16 13:39:25;;;;;;;3.28;2.03;;;;;;;;;;5035571;28;20427;-77
2023/08/16 13:41:51;;;;;;;3.78;1.95;;;;;;;;;;5051911;28;20446;-77
2023/08/16 13:44:17;;;;;;;3.92;2.00;;;;;;;;;;5035178;28;20412;-77
2023/08/16 13:46:43;;;;;;;3.33;2.05;;;;;;;;;;5047092;28;20487;-78
2023/08/16 13:49:09;;;;;;;4.65;1.90;;;;;;;;;;5045135;28;20435;-77
2023/08/16 13:51:35;;;;;;;3.28;1.80;;;;;;;;;;5052764;28;20396;-77
2023/08/16 13:54:01;;;;;;;3.47;1.67;;;;;;;;;;5051048;28;20424;-77
2023/08/16 13:56:27;;;;;;;2.15;1.60;;;;;;;;;;5052262;28;20423;-77
2023/08/16 13:58:53;;;;;;;3.53;1.70;;;;;;;;;;5050664;28;20444;-77
2023/08/16 14:01:19;;;;;;;2.70;1.70;;;;;;;;;;5049576;28;20416;-76
2023/08/16 14:03:45;;;;;;;4.90;1.90;;;;;;;;;;5049408;28;20490;-75
2023/08/16 14:06:11;;;;;;;3.83;1.90;;;;;;;;;;5049695;28;20493;-76
2023/08/16 14:08:37;;;;;;;3.63;2.03;;;;;;;;;;5028463;28;20436;-81
2023/08/16 14:11:03;;;;;;;3.17;1.90;;;;;;;;;;5051202;28;20408;-81
2023/08/16 14:13:29;;;;;;;2.80;2.10;;;;;;;;;;5044254;28;20419;-81
2023/08/16 14:15:59;;;;;;;3.10;1.90;;;;;;;;;;5051120;28;20533;-82
2023/08/16 14:18:25;;;;;;;3.85;1.90;;;;;;;;;;5033286;28;20434;-76
2023/08/16 14:20:51;;;;;;;4.95;1.88;;;;;;;;;;5055589;28;20258;-76
2023/08/16 14:23:17;;;;;;;3.60;2.00;;;;;;;;;;5036544;28;20504;-76
2023/08/16 14:25:47;;;;;;;4.38;1.98;;;;;;;;;;5039743;28;20318;-76
2023/08/16 14:28:14;;;;;;;4.35;2.00;;;;;;;;;;5036213;28;20444;-76
2023/08/16 14:30:41;;;;;;;4.40;1.90;;;;;;;;;;5051960;28;20458;-76
2023/08/16 14:33:09;;;;;;;3.70;1.90;;;;;;;;;;5050819;28;20415;-76
2023/08/16 14:35:35;;;;;;;3.35;1.92;;;;;;;;;;5049495;28;20501;-81
2023/08/16 14:38:01;;;;;;;6.32;2.20;;;;;;;;;;5028671;28;20478;-81